createdAt,value
2023-05-19T00:01:54.733Z,17.07
2023-05-19T00:04:20.917Z,17.06
2023-05-19T00:06:47.148Z,17.06
2023-05-19T00:09:13.322Z,17.05
2023-05-19T00:11:39.479Z,17.04
2023-05-19T00:14:05.629Z,17.04
2023-05-19T00:16:32.230Z,17.04
2023-05-19T00:18:58.439Z,17.05
2023-05-19T00:21:24.728Z,17.04
2023-05-19T00:23:50.886Z,17.04
2023-05-19T00:26:17.054Z,17.04
2023-05-19T00:28:43.231Z,17.03
2023-05-19T00:31:09.359Z,17.03
2023-05-19T00:33:35.499Z,17.02
2023-05-19T00:36:02.165Z,17.03
2023-05-19T00:38:28.308Z,17.03
2023-05-19T00:40:54.470Z,17.02
2023-05-19T00:43:20.638Z,17.02
2023-05-19T00:45:46.786Z,17.01
2023-05-19T00:48:12.928Z,17.02
2023-05-19T00:50:39.083Z,17.02
2023-05-19T00:53:05.219Z,17.01
2023-05-19T00:55:31.368Z,17.00
2023-05-19T00:57:57.560Z,17.02
2023-05-19T01:00:23.696Z,17.01
2023-05-19T01:02:49.949Z,17.00
2023-05-19T01:05:16.152Z,17.01
2023-05-19T01:07:42.284Z,17.00
2023-05-19T01:10:08.446Z,17.00
2023-05-19T01:12:34.665Z,16.99
2023-05-19T01:15:00.831Z,16.99
2023-05-19T01:17:27.000Z,16.99
2023-05-19T01:19:53.187Z,16.98
2023-05-19T01:22:19.392Z,16.98
2023-05-19T01:24:45.528Z,16.97
2023-05-19T01:27:11.694Z,16.98
2023-05-19T01:29:37.879Z,16.98
2023-05-19T01:32:04.089Z,16.97
2023-05-19T01:34:30.285Z,16.97
2023-05-19T01:36:56.455Z,16.96
2023-05-19T01:39:22.613Z,16.97
2023-05-19T01:41:48.890Z,16.95
2023-05-19T01:44:15.035Z,16.95
2023-05-19T01:46:41.193Z,16.95
2023-05-19T01:49:07.340Z,16.95
2023-05-19T01:51:33.483Z,16.95
2023-05-19T01:53:59.665Z,16.95
2023-05-19T01:56:25.860Z,16.94
2023-05-19T01:58:52.011Z,16.94
2023-05-19T02:01:18.155Z,16.94
2023-05-19T02:03:46.578Z,16.95
2023-05-19T02:06:12.780Z,16.94
2023-05-19T02:08:39.231Z,16.95
2023-05-19T02:11:05.401Z,16.94
2023-05-19T02:13:31.550Z,16.95
2023-05-19T02:15:57.776Z,16.95
2023-05-19T02:18:23.950Z,16.94
2023-05-19T02:20:50.076Z,16.92
2023-05-19T02:23:16.205Z,16.93
2023-05-19T02:25:42.365Z,16.93
2023-05-19T02:28:08.535Z,16.92
2023-05-19T02:30:34.834Z,16.92
2023-05-19T02:33:01.176Z,16.92
2023-05-19T02:35:27.422Z,16.93
2023-05-19T02:37:53.569Z,16.91
2023-05-19T02:40:19.736Z,16.91
2023-05-19T02:42:45.874Z,16.90
2023-05-19T02:45:12.017Z,16.90
2023-05-19T02:47:38.239Z,16.90
2023-05-19T02:50:04.516Z,16.89
2023-05-19T02:52:30.656Z,16.89
2023-05-19T02:54:56.818Z,16.89
2023-05-19T02:57:22.958Z,16.89
2023-05-19T02:59:49.095Z,16.89
2023-05-19T03:02:15.308Z,16.88
2023-05-19T03:04:43.789Z,16.88
2023-05-19T03:07:10.023Z,16.88
2023-05-19T03:09:36.183Z,16.87
2023-05-19T03:12:02.323Z,16.87
2023-05-19T03:14:28.459Z,16.88
2023-05-19T03:16:54.790Z,16.87
2023-05-19T03:19:21.109Z,16.86
2023-05-19T03:21:47.372Z,16.86
2023-05-19T03:24:13.529Z,16.86
2023-05-19T03:26:39.685Z,16.84
2023-05-19T03:29:05.976Z,16.85
2023-05-19T03:31:32.276Z,16.83
2023-05-19T03:33:58.497Z,16.83
2023-05-19T03:36:26.727Z,16.83
2023-05-19T03:38:52.895Z,16.83
2023-05-19T03:41:19.173Z,16.83
2023-05-19T03:43:45.300Z,16.82
2023-05-19T03:46:11.486Z,16.82
2023-05-19T03:48:37.656Z,16.82
2023-05-19T03:51:03.797Z,16.82
2023-05-19T03:53:29.952Z,16.82
2023-05-19T03:55:56.134Z,16.81
2023-05-19T03:58:22.302Z,16.80
2023-05-19T04:00:48.442Z,16.80
2023-05-19T04:03:14.714Z,16.81
2023-05-19T04:05:40.923Z,16.80
2023-05-19T04:08:07.082Z,16.80
2023-05-19T04:10:33.458Z,16.80
2023-05-19T04:12:59.744Z,16.80
2023-05-19T04:15:25.915Z,16.79
2023-05-19T04:17:52.089Z,16.78
2023-05-19T04:20:18.265Z,16.77
2023-05-19T04:22:44.504Z,16.77
2023-05-19T04:25:10.638Z,16.78
2023-05-19T04:27:36.792Z,16.78
2023-05-19T04:30:02.969Z,16.78
2023-05-19T04:32:29.158Z,16.77
2023-05-19T04:34:55.354Z,16.76
2023-05-19T04:37:21.495Z,16.77
2023-05-19T04:39:47.641Z,16.76
2023-05-19T04:42:13.770Z,16.77
2023-05-19T04:44:39.930Z,16.76
2023-05-19T04:47:06.206Z,16.76
2023-05-19T04:49:32.568Z,16.76
2023-05-19T04:51:58.724Z,16.76
2023-05-19T04:54:24.862Z,16.76
2023-05-19T04:56:51.000Z,16.76
2023-05-19T04:59:17.155Z,16.75
2023-05-19T05:01:43.407Z,16.75
2023-05-19T05:04:09.800Z,16.75
2023-05-19T05:06:36.004Z,16.74
2023-05-19T05:09:02.150Z,16.74
2023-05-19T05:11:28.284Z,16.73
2023-05-19T05:13:54.419Z,16.74
2023-05-19T05:16:20.608Z,16.74
2023-05-19T05:18:46.841Z,16.74
2023-05-19T05:21:13.125Z,16.73
2023-05-19T05:23:39.287Z,16.73
2023-05-19T05:26:05.426Z,16.73
2023-05-19T05:28:31.592Z,16.73
2023-05-19T05:30:57.731Z,16.72
2023-05-19T05:33:24.047Z,16.73
2023-05-19T05:35:50.373Z,16.73
2023-05-19T05:38:16.528Z,16.72
2023-05-19T05:40:42.674Z,16.72
2023-05-19T05:43:08.836Z,16.74
2023-05-19T05:45:35.054Z,16.74
2023-05-19T05:48:01.408Z,16.73
2023-05-19T05:50:27.745Z,16.74
2023-05-19T05:52:53.882Z,16.74
2023-05-19T05:55:20.049Z,16.73
2023-05-19T05:57:46.216Z,16.72
2023-05-19T06:00:12.360Z,16.72
2023-05-19T06:02:38.595Z,16.72
2023-05-19T06:05:04.876Z,16.73
2023-05-19T06:07:31.077Z,16.73
2023-05-19T06:09:57.203Z,16.74
2023-05-19T06:12:23.359Z,16.73
2023-05-19T06:14:49.518Z,16.71
2023-05-19T06:17:15.665Z,16.71
2023-05-19T06:19:41.853Z,16.71
2023-05-19T06:22:07.990Z,16.73
2023-05-19T06:24:34.118Z,16.71
2023-05-19T06:27:00.342Z,16.70
2023-05-19T06:29:26.503Z,16.71
2023-05-19T06:31:52.754Z,16.72
2023-05-19T06:34:19.080Z,16.73
2023-05-19T06:36:45.223Z,16.73
2023-05-19T06:39:11.428Z,16.74
2023-05-19T06:41:37.605Z,16.73
2023-05-19T06:44:03.755Z,16.74
2023-05-19T06:46:29.898Z,16.73
2023-05-19T06:48:56.154Z,16.74
2023-05-19T06:51:22.323Z,16.74
2023-05-19T06:53:48.496Z,16.74
2023-05-19T06:56:14.645Z,16.74
2023-05-19T06:58:40.801Z,16.76
2023-05-19T07:01:06.948Z,16.75
2023-05-19T07:03:33.208Z,16.76
2023-05-19T07:05:59.486Z,16.75
2023-05-19T07:08:25.627Z,16.77
2023-05-19T07:10:51.791Z,16.75
2023-05-19T07:13:17.937Z,16.75
2023-05-19T07:15:44.077Z,16.76
2023-05-19T07:18:10.301Z,16.76
2023-05-19T07:20:36.504Z,16.76
2023-05-19T07:23:02.659Z,16.75
2023-05-19T07:25:28.828Z,16.76
2023-05-19T07:27:54.968Z,16.77
2023-05-19T07:30:21.107Z,16.79
2023-05-19T07:32:47.409Z,16.79
2023-05-19T07:35:13.561Z,16.77
2023-05-19T07:37:39.692Z,16.81
2023-05-19T07:40:05.957Z,16.81
2023-05-19T07:42:32.111Z,16.83
2023-05-19T07:44:58.259Z,16.81
2023-05-19T07:47:24.435Z,16.81
2023-05-19T07:49:51.849Z,16.81
2023-05-19T07:52:18.268Z,16.83
2023-05-19T07:54:44.445Z,16.82
2023-05-19T07:57:10.599Z,16.81
2023-05-19T07:59:36.736Z,16.81
2023-05-19T08:02:02.956Z,16.82
2023-05-19T08:04:29.206Z,16.84
2023-05-19T08:06:55.345Z,16.85
2023-05-19T08:09:21.491Z,16.85
2023-05-19T08:11:47.654Z,16.85
2023-05-19T08:14:13.809Z,16.85
2023-05-19T08:16:39.969Z,16.86
2023-05-19T08:19:06.171Z,16.85
2023-05-19T08:21:32.436Z,16.86
2023-05-19T08:23:58.611Z,16.86
2023-05-19T08:26:24.740Z,16.88
2023-05-19T08:28:50.897Z,16.88
2023-05-19T08:31:17.304Z,16.88
2023-05-19T08:33:44.570Z,16.88
2023-05-19T08:36:10.736Z,16.88
2023-05-19T08:38:36.898Z,16.88
2023-05-19T08:41:03.062Z,16.89
2023-05-19T08:43:29.200Z,16.88
2023-05-19T08:45:55.353Z,16.89
2023-05-19T08:48:21.489Z,16.89
2023-05-19T08:50:47.627Z,16.90
2023-05-19T08:53:25.058Z,16.90
2023-05-19T08:55:58.421Z,16.90
2023-05-19T08:58:25.443Z,16.90
2023-05-19T09:00:52.956Z,16.91
2023-05-19T09:05:49.274Z,16.91
2023-05-19T09:08:15.453Z,16.91
2023-05-19T09:10:41.618Z,16.91
2023-05-19T09:13:07.818Z,16.92
2023-05-19T09:15:34.382Z,16.93
2023-05-19T09:18:00.795Z,16.93
2023-05-19T09:20:27.023Z,16.93
2023-05-19T09:22:53.179Z,16.93
2023-05-19T09:25:19.370Z,16.94
2023-05-19T09:27:45.529Z,16.93
2023-05-19T09:30:11.671Z,16.95
2023-05-19T09:32:37.981Z,16.94
2023-05-19T09:35:04.169Z,16.95
2023-05-19T09:37:30.368Z,16.95
2023-05-19T09:39:56.556Z,16.95
2023-05-19T09:42:22.799Z,16.96
2023-05-19T09:44:48.937Z,16.96
2023-05-19T09:47:15.073Z,16.96
2023-05-19T09:49:41.243Z,16.96
2023-05-19T09:52:07.388Z,16.97
2023-05-19T09:54:33.557Z,16.99
2023-05-19T09:56:59.832Z,16.98
2023-05-19T09:59:26.031Z,16.98
2023-05-19T10:01:52.287Z,17.00
2023-05-19T10:04:18.957Z,17.00
2023-05-19T10:06:45.134Z,16.98
2023-05-19T10:09:11.297Z,16.99
2023-05-19T10:11:37.467Z,16.99
2023-05-19T10:14:03.598Z,17.02
2023-05-19T10:16:29.767Z,17.01
2023-05-19T10:18:56.017Z,17.02
2023-05-19T10:21:22.268Z,17.03
2023-05-19T10:23:48.419Z,17.03
2023-05-19T10:26:14.586Z,17.03
2023-05-19T10:28:40.718Z,17.03
2023-05-19T10:31:06.869Z,17.02
2023-05-19T10:33:33.072Z,17.03
2023-05-19T10:35:59.199Z,17.04
2023-05-19T10:38:25.356Z,17.04
2023-05-19T10:40:51.534Z,17.03
2023-05-19T10:43:17.690Z,17.03
2023-05-19T10:45:43.830Z,17.06
2023-05-19T10:48:10.027Z,17.06
2023-05-19T10:50:36.234Z,17.08
2023-05-19T10:53:02.440Z,17.07
2023-05-19T10:55:28.639Z,17.07
2023-05-19T10:57:54.818Z,17.06
2023-05-19T11:00:20.996Z,17.07
2023-05-19T11:02:47.198Z,17.07
2023-05-19T11:05:13.368Z,17.07
2023-05-19T11:07:39.544Z,17.07
2023-05-19T11:10:05.856Z,17.08
2023-05-19T11:12:32.199Z,17.08
2023-05-19T11:14:58.481Z,17.10
2023-05-19T11:17:24.678Z,17.08
2023-05-19T11:19:50.842Z,17.10
2023-05-19T11:22:16.981Z,17.10
2023-05-19T11:24:43.201Z,17.10
2023-05-19T11:27:09.372Z,17.11
2023-05-19T11:29:35.528Z,17.11
2023-05-19T11:32:01.736Z,17.11
2023-05-19T11:34:27.913Z,17.13
2023-05-19T11:36:54.064Z,17.12
2023-05-19T11:39:20.225Z,17.13
2023-05-19T11:41:46.387Z,17.14
2023-05-19T11:44:12.532Z,17.14
2023-05-19T11:46:38.843Z,17.15
2023-05-19T11:49:05.048Z,17.15
2023-05-19T11:51:31.197Z,17.14
2023-05-19T11:53:57.900Z,17.15
2023-05-19T11:56:24.786Z,17.14
2023-05-19T11:58:51.024Z,17.14
2023-05-19T12:01:17.437Z,17.16
2023-05-19T12:03:43.660Z,17.16
2023-05-19T12:06:10.007Z,17.18
2023-05-19T12:08:36.295Z,17.17
2023-05-19T12:11:02.447Z,17.16
2023-05-19T12:13:28.592Z,17.16
2023-05-19T12:15:57.858Z,17.18
2023-05-19T12:18:24.054Z,17.19
2023-05-19T12:20:50.238Z,17.18
2023-05-19T12:23:16.418Z,17.19
2023-05-19T12:25:42.568Z,17.20
2023-05-19T12:28:08.710Z,17.19
2023-05-19T12:30:35.445Z,17.20
2023-05-19T12:33:02.073Z,17.20
2023-05-19T12:35:28.311Z,17.21
2023-05-19T12:37:54.470Z,17.22
2023-05-19T12:40:20.650Z,17.22
2023-05-19T12:42:46.804Z,17.22
2023-05-19T12:45:12.976Z,17.22
2023-05-19T12:47:39.163Z,17.23
2023-05-19T12:50:05.388Z,17.23
2023-05-19T12:52:31.607Z,17.23
2023-05-19T12:54:57.812Z,17.24
2023-05-19T12:57:23.985Z,17.24
2023-05-19T12:59:50.765Z,17.24
2023-05-19T13:02:17.077Z,17.25
2023-05-19T13:04:43.328Z,17.25
2023-05-19T13:07:09.493Z,17.26
2023-05-19T13:09:35.637Z,17.27
2023-05-19T13:12:01.811Z,17.25
2023-05-19T13:14:27.962Z,17.28
2023-05-19T13:16:54.151Z,17.27
2023-05-19T13:21:49.409Z,17.29
2023-05-19T13:24:15.589Z,17.29
2023-05-19T13:26:41.723Z,17.29
2023-05-19T13:29:07.898Z,17.30
2023-05-19T13:31:34.179Z,17.30
2023-05-19T13:34:00.417Z,17.30
2023-05-19T13:36:26.591Z,17.30
2023-05-19T13:38:52.731Z,17.31
2023-05-19T13:41:18.882Z,17.32
2023-05-19T13:43:45.059Z,17.32
2023-05-19T13:46:11.291Z,17.32
2023-05-19T13:48:37.493Z,17.33
2023-05-19T13:51:03.666Z,17.33
2023-05-19T13:53:29.821Z,17.33
2023-05-19T13:55:55.980Z,17.33
2023-05-19T13:58:22.154Z,17.34
2023-05-19T14:00:48.314Z,17.35
2023-05-19T14:03:14.546Z,17.35
2023-05-19T14:05:40.807Z,17.35
2023-05-19T14:08:06.974Z,17.36
2023-05-19T14:10:33.409Z,17.36
2023-05-19T14:15:29.372Z,17.37
2023-05-19T14:17:55.620Z,17.37
2023-05-19T14:20:21.857Z,17.38
2023-05-19T14:22:48.012Z,17.38
2023-05-19T14:25:14.196Z,17.38
2023-05-19T14:27:40.443Z,17.38
2023-05-19T14:30:06.803Z,17.38
2023-05-19T14:32:33.013Z,17.39
2023-05-19T14:34:59.203Z,17.39
2023-05-19T14:37:25.348Z,17.39
2023-05-19T14:39:51.486Z,17.39
2023-05-19T14:42:17.648Z,17.40
2023-05-19T14:44:43.798Z,17.39
2023-05-19T14:47:10.051Z,17.40
2023-05-19T14:49:36.498Z,17.42
2023-05-19T14:52:02.781Z,17.42
2023-05-19T14:54:28.954Z,17.43
2023-05-19T14:56:55.183Z,17.44
2023-05-19T14:59:21.331Z,17.43
2023-05-19T15:01:47.690Z,17.43
2023-05-19T15:04:14.025Z,17.44
2023-05-19T15:06:40.205Z,17.45
2023-05-19T15:09:06.350Z,17.43
2023-05-19T15:11:32.523Z,17.45
2023-05-19T15:13:58.670Z,17.44
2023-05-19T15:16:24.858Z,17.45
2023-05-19T15:18:51.102Z,17.44
2023-05-19T15:21:17.275Z,17.44
2023-05-19T15:23:43.448Z,17.45
2023-05-19T15:26:09.639Z,17.45
2023-05-19T15:28:35.801Z,17.48
2023-05-19T15:31:01.978Z,17.46
2023-05-19T15:33:28.371Z,17.46
2023-05-19T15:35:54.516Z,17.47
2023-05-19T15:38:20.687Z,17.48
2023-05-19T15:40:46.919Z,17.46
2023-05-19T15:43:13.073Z,17.47
2023-05-19T15:45:39.212Z,17.46
2023-05-19T15:48:05.469Z,17.48
2023-05-19T15:50:31.671Z,17.49
2023-05-19T15:52:59.838Z,17.50
2023-05-19T15:55:28.344Z,17.50
2023-05-19T15:57:54.506Z,17.51
2023-05-19T16:00:20.675Z,17.49
2023-05-19T16:02:46.981Z,17.50
2023-05-19T16:05:13.202Z,17.50
2023-05-19T16:07:39.942Z,17.50
2023-05-19T16:10:06.120Z,17.50
2023-05-19T16:12:32.270Z,17.50
2023-05-19T16:14:58.413Z,17.49
2023-05-19T16:17:24.582Z,17.51
2023-05-19T16:19:50.719Z,17.52
2023-05-19T16:22:16.873Z,17.51
2023-05-19T16:24:43.128Z,17.51
2023-05-19T16:27:09.270Z,17.51
2023-05-19T16:29:35.426Z,17.52
2023-05-19T16:32:01.644Z,17.51
2023-05-19T16:34:34.927Z,17.51
2023-05-19T16:37:01.599Z,17.52
2023-05-19T16:39:27.772Z,17.52
2023-05-19T16:41:53.917Z,17.52
2023-05-19T16:44:20.050Z,17.52
2023-05-19T16:46:46.211Z,17.48
2023-05-19T16:49:12.359Z,17.52
2023-05-19T16:51:38.530Z,17.53
2023-05-19T16:54:04.710Z,17.53
2023-05-19T16:56:30.857Z,17.53
2023-05-19T16:58:57.014Z,17.54
2023-05-19T17:01:23.217Z,17.54
2023-05-19T17:03:49.452Z,17.54
2023-05-19T17:06:15.625Z,17.54
2023-05-19T17:08:41.805Z,17.55
2023-05-19T17:11:08.064Z,17.56
2023-05-19T17:13:34.224Z,17.55
2023-05-19T17:16:00.629Z,17.56
2023-05-19T17:18:26.836Z,17.56
2023-05-19T17:20:52.990Z,17.57
2023-05-19T17:23:19.144Z,17.57
2023-05-19T17:25:45.328Z,17.58
2023-05-19T17:28:11.506Z,17.56
2023-05-19T17:30:37.661Z,17.58
2023-05-19T17:33:04.839Z,17.58
2023-05-19T17:35:31.036Z,17.59
2023-05-19T17:37:57.231Z,17.58
2023-05-19T17:40:23.408Z,17.58
2023-05-19T17:42:51.737Z,17.57
2023-05-19T17:45:17.895Z,17.58
2023-05-19T17:47:44.059Z,17.58
2023-05-19T17:50:10.238Z,17.57
2023-05-19T17:52:36.432Z,17.58
2023-05-19T17:55:02.575Z,17.58
2023-05-19T17:57:28.726Z,17.58
2023-05-19T17:59:54.903Z,17.58
2023-05-19T18:02:21.048Z,17.59
2023-05-19T18:04:47.213Z,17.58
2023-05-19T18:07:13.466Z,17.57
2023-05-19T18:09:39.593Z,17.58
2023-05-19T18:12:05.715Z,17.58
2023-05-19T18:14:31.876Z,17.59
2023-05-19T18:16:58.015Z,17.58
2023-05-19T18:19:24.318Z,17.59
2023-05-19T18:21:50.702Z,17.59
2023-05-19T18:24:16.864Z,17.59
2023-05-19T18:26:43.044Z,17.59
2023-05-19T18:29:09.216Z,17.59
2023-05-19T18:31:35.488Z,17.61
2023-05-19T18:34:01.655Z,17.60
2023-05-19T18:36:27.810Z,17.60
2023-05-19T18:38:53.984Z,17.60
2023-05-19T18:41:20.153Z,17.62
2023-05-19T18:43:46.336Z,17.61
2023-05-19T18:46:12.532Z,17.62
2023-05-19T18:48:38.680Z,17.61
2023-05-19T18:51:04.838Z,17.60
2023-05-19T18:53:31.013Z,17.61
2023-05-19T18:55:57.141Z,17.61
2023-05-19T18:58:23.319Z,17.61
2023-05-19T19:00:49.523Z,17.62
2023-05-19T19:03:15.701Z,17.62
2023-05-19T19:05:41.966Z,17.62
2023-05-19T19:08:08.122Z,17.62
2023-05-19T19:10:34.688Z,17.62
2023-05-19T19:13:01.313Z,17.62
2023-05-19T19:15:27.456Z,17.62
2023-05-19T19:17:53.693Z,17.63
2023-05-19T19:20:19.875Z,17.64
2023-05-19T19:22:46.061Z,17.61
2023-05-19T19:25:12.187Z,17.62
2023-05-19T19:27:38.354Z,17.61
2023-05-19T19:30:04.550Z,17.62
2023-05-19T19:32:30.756Z,17.61
2023-05-19T19:34:56.934Z,17.61
2023-05-19T19:37:23.068Z,17.61
2023-05-19T19:39:49.212Z,17.60
2023-05-19T19:42:15.403Z,17.60
2023-05-19T19:44:41.558Z,17.61
2023-05-19T19:47:07.814Z,17.61
2023-05-19T19:49:33.976Z,17.61
2023-05-19T19:52:00.188Z,17.61
2023-05-19T19:54:26.371Z,17.61
2023-05-19T19:56:52.527Z,17.60
2023-05-19T19:59:18.837Z,17.60
2023-05-19T20:01:44.979Z,17.61
2023-05-19T20:04:11.265Z,17.60
2023-05-19T20:06:37.574Z,17.61
2023-05-19T20:09:03.709Z,17.60
2023-05-19T20:11:29.884Z,17.61
2023-05-19T20:13:56.028Z,17.61
2023-05-19T20:16:22.223Z,17.60
2023-05-19T20:18:48.478Z,17.61
2023-05-19T20:21:14.682Z,17.61
2023-05-19T20:23:40.852Z,17.61
2023-05-19T20:26:12.558Z,17.62
2023-05-19T20:28:39.525Z,17.62
2023-05-19T20:31:05.771Z,17.62
2023-05-19T20:33:32.030Z,17.62
2023-05-19T20:35:58.196Z,17.60
2023-05-19T20:38:24.691Z,17.61
2023-05-19T20:40:51.038Z,17.60
2023-05-19T20:43:17.195Z,17.61
2023-05-19T20:45:43.439Z,17.60
2023-05-19T20:48:09.723Z,17.61
2023-05-19T20:50:35.904Z,17.60
2023-05-19T20:53:02.052Z,17.61
2023-05-19T20:55:28.386Z,17.60
2023-05-19T20:57:54.579Z,17.61
2023-05-19T21:00:20.720Z,17.61
2023-05-19T21:02:46.960Z,17.61
2023-05-19T21:05:13.177Z,17.60
2023-05-19T21:07:39.534Z,17.61
2023-05-19T21:10:05.813Z,17.59
2023-05-19T21:12:31.970Z,17.59
2023-05-19T21:14:58.141Z,17.61
2023-05-19T21:17:24.415Z,17.60
2023-05-19T21:19:51.282Z,17.60
2023-05-19T21:22:17.479Z,17.60
2023-05-19T21:24:43.654Z,17.60
2023-05-19T21:27:09.816Z,17.59
2023-05-19T21:29:35.975Z,17.59
2023-05-19T21:32:02.377Z,17.58
2023-05-19T21:34:28.511Z,17.58
2023-05-19T21:36:54.766Z,17.60
2023-05-19T21:39:20.951Z,17.59
2023-05-19T21:41:47.079Z,17.60
2023-05-19T21:44:13.201Z,17.59
2023-05-19T21:46:39.398Z,17.59
2023-05-19T21:49:07.729Z,17.59
2023-05-19T21:51:34.732Z,17.58
2023-05-19T21:54:00.908Z,17.59
2023-05-19T21:56:27.059Z,17.60
2023-05-19T21:58:53.215Z,17.60
2023-05-19T22:01:19.429Z,17.59
2023-05-19T22:03:45.650Z,17.61
2023-05-19T22:06:11.943Z,17.60
2023-05-19T22:08:38.101Z,17.59
2023-05-19T22:11:04.311Z,17.60
2023-05-19T22:13:30.476Z,17.59
2023-05-19T22:15:56.701Z,17.59
2023-05-19T22:18:22.865Z,17.59
2023-05-19T22:20:49.054Z,17.59
2023-05-19T22:23:15.401Z,17.58
2023-05-19T22:25:41.828Z,17.59
2023-05-19T22:28:08.085Z,17.60
2023-05-19T22:30:34.596Z,17.58
2023-05-19T22:33:00.967Z,17.59
2023-05-19T22:35:27.138Z,17.58
2023-05-19T22:37:53.300Z,17.59
2023-05-19T22:40:19.442Z,17.59
2023-05-19T22:42:45.590Z,17.58
2023-05-19T22:45:11.863Z,17.59
2023-05-19T22:47:38.079Z,17.58
2023-05-19T22:50:05.587Z,17.58
2023-05-19T22:52:31.755Z,17.58
2023-05-19T22:54:57.892Z,17.58
2023-05-19T22:57:24.045Z,17.58
2023-05-19T22:59:50.237Z,17.57
2023-05-19T23:02:16.380Z,17.57
2023-05-19T23:04:42.532Z,17.57
2023-05-19T23:07:08.722Z,17.57
2023-05-19T23:09:34.876Z,17.58
2023-05-19T23:12:01.010Z,17.57
2023-05-19T23:14:27.166Z,17.57
2023-05-19T23:16:53.320Z,17.57
2023-05-19T23:19:19.617Z,17.57
2023-05-19T23:21:45.831Z,17.57
2023-05-19T23:24:11.981Z,17.58
2023-05-19T23:26:38.126Z,17.55
2023-05-19T23:29:04.295Z,17.55
2023-05-19T23:31:30.483Z,17.55
2023-05-19T23:33:56.693Z,17.56
2023-05-19T23:36:23.001Z,17.55
2023-05-19T23:38:49.145Z,17.55
2023-05-19T23:41:15.287Z,17.55
2023-05-19T23:43:41.430Z,17.55
2023-05-19T23:46:07.847Z,17.55
2023-05-19T23:48:34.063Z,17.54
2023-05-19T23:51:00.218Z,17.55
2023-05-19T23:53:26.347Z,17.55
2023-05-19T23:55:52.583Z,17.54
2023-05-19T23:58:18.791Z,17.53
